Time;durP1;ratioP1;P1;durP2;ratioP2;P2;SDS_P1;SDS_P2;PMS_P1;PMS_P2;Temp;Humidity;BMP_temperature;BMP_pressure;BME280_temperature;BME280_humidity;BME280_pressure;Samples;Min_cycle;Max_cycle;Signal;HPM_P1;HPM_P2
2022/06/14 06:00:53;;;;;;;;;6.00;5.50;;;;;20.10;48.42;101827.06;5042405;27;46239;-78
2022/06/14 06:03:49;;;;;;;;;4.25;4.25;;;;;20.30;48.39;101832.72;5038224;28;45822;-80
2022/06/14 06:06:30;;;;;;;;;4.50;4.50;;;;;20.54;50.02;101817.31;5037507;28;45543;-80
2022/06/14 06:08:57;;;;;;;;;5.00;3.67;;;;;20.82;50.38;101822.34;5046242;28;45622;-79
2022/06/14 06:11:32;;;;;;;;;3.67;3.67;;;;;21.05;49.50;101825.03;5044833;28;45545;-79
2022/06/14 06:14:12;;;;;;;;;4.33;4.33;;;;;21.28;49.18;101820.44;5039407;28;45382;-77
2022/06/14 06:16:53;;;;;;;;;5.00;5.00;;;;;21.47;49.19;101818.91;5050680;28;45490;-77
2022/06/14 06:19:31;;;;;;;;;4.00;4.00;;;;;21.77;48.53;101821.84;5045693;28;45614;-79
2022/06/14 06:22:02;;;;;;;;;3.33;3.33;;;;;22.02;47.74;101819.78;5038562;28;46275;-79
2022/06/14 06:24:51;;;;;;;;;4.33;4.33;;;;;22.24;47.39;101816.06;5042003;28;45689;-79
2022/06/14 06:27:20;;;;;;;;;4.00;4.00;;;;;22.46;47.35;101816.88;5045643;28;45891;-79
2022/06/14 06:29:52;;;;;;;;;3.00;3.00;;;;;22.64;46.71;101809.00;5045795;28;45938;-79
2022/06/14 06:32:21;;;;;;;;;5.00;3.67;;;;;22.77;46.04;101809.63;5046980;28;46546;-79
2022/06/14 06:34:49;;;;;;;;;3.00;3.00;;;;;22.92;45.65;101800.25;5045644;28;45514;-79
2022/06/14 06:37:23;;;;;;;;;4.00;4.00;;;;;23.03;45.53;101803.72;5044912;28;45998;-79
2022/06/14 06:39:58;;;;;;;;;4.00;4.00;;;;;23.13;45.10;101792.88;5043567;28;45514;-79
2022/06/14 06:42:29;;;;;;;;;6.00;5.00;;;;;23.22;45.35;101791.16;5046273;28;47093;-79
2022/06/14 06:45:04;;;;;;;;;5.00;5.00;;;;;23.30;44.58;101785.91;5043137;28;45405;-79
2022/06/14 06:47:37;;;;;;;;;4.33;3.33;;;;;23.40;44.14;101788.66;5046145;28;45405;-79
2022/06/14 06:50:09;;;;;;;;;4.33;3.67;;;;;23.46;44.14;101792.63;5043188;28;45449;-79
2022/06/14 06:52:47;;;;;;;;;5.00;5.00;;;;;23.48;43.82;101787.94;5045641;28;45901;-79
2022/06/14 06:55:21;;;;;;;;;4.00;4.00;;;;;23.52;44.13;101789.38;5041241;28;45562;-79
2022/06/14 06:57:50;;;;;;;;;3.67;3.33;;;;;23.59;43.73;101791.50;5039122;28;45593;-79
2022/06/14 07:00:19;;;;;;;;;5.00;5.00;;;;;23.66;43.70;101789.91;5045486;27;45580;-79
2022/06/14 07:03:04;;;;;;;;;4.33;4.33;;;;;23.73;43.54;101796.50;5045159;28;45444;-79
2022/06/14 07:05:29;;;;;;;;;4.67;4.67;;;;;23.77;43.08;101802.47;5045015;28;46812;-79
2022/06/14 07:08:21;;;;;;;;;6.67;5.00;;;;;23.82;42.75;101800.16;5044357;28;45499;-79
2022/06/14 07:10:53;;;;;;;;;4.67;3.67;;;;;23.85;43.04;101801.72;5044025;28;54067;-79
2022/06/14 07:13:33;;;;;;;;;4.00;4.00;;;;;23.88;42.48;101799.63;5028730;28;45513;-79
2022/06/14 07:16:12;;;;;;;;;3.33;3.33;;;;;23.88;42.73;101790.63;5026458;28;45522;-78
2022/06/14 07:19:15;;;;;;;;;10.00;5.67;;;;;23.97;42.26;101787.03;5027278;28;45532;-80
2022/06/14 07:21:47;;;;;;;;;6.00;4.67;;;;;24.07;42.18;101785.13;4986898;28;46194;-79
2022/06/14 07:24:35;;;;;;;;;6.67;4.67;;;;;24.19;41.71;101783.13;4985789;28;45512;-79
2022/06/14 07:27:11;;;;;;;;;4.00;4.00;;;;;24.32;41.31;101790.94;4992688;28;45545;-79
2022/06/14 07:29:46;;;;;;;;;5.00;5.00;;;;;24.44;41.25;101785.34;4988827;28;45786;-77
2022/06/14 07:32:25;;;;;;;;;7.00;5.00;;;;;24.55;40.78;101793.28;4997699;28;45567;-78
2022/06/14 07:34:52;;;;;;;;;4.00;4.00;;;;;24.65;40.55;101781.53;4990678;28;46324;-78
2022/06/14 07:37:23;;;;;;;;;4.00;4.00;;;;;24.72;40.60;101780.75;4985483;28;45437;-78
2022/06/14 07:39:54;;;;;;;;;5.67;5.00;;;;;24.82;40.20;101777.13;4990507;28;45649;-78
2022/06/14 07:42:30;;;;;;;;;6.00;3.00;;;;;24.89;40.17;101777.41;4987841;28;45571;-80
2022/06/14 07:45:05;;;;;;;;;5.67;5.67;;;;;24.95;39.65;101764.09;4987951;28;46194;-79
2022/06/14 07:47:38;;;;;;;;;4.33;4.33;;;;;25.01;40.50;101762.59;4978580;28;46119;-79
2022/06/14 07:50:22;;;;;;;;;4.00;4.00;;;;;25.07;39.89;101766.56;4992928;28;45615;-78
2022/06/14 07:52:55;;;;;;;;;4.00;4.00;;;;;25.08;39.36;101765.56;4992066;28;45560;-77
2022/06/14 07:55:39;;;;;;;;;4.33;4.33;;;;;25.16;39.46;101772.91;4987962;28;46270;-78
2022/06/14 07:58:11;;;;;;;;;5.00;5.00;;;;;25.20;39.13;101766.19;5013177;28;45458;-78
2022/06/14 08:03:37;;;;;;;;;7.00;5.67;;;;;25.27;39.03;101753.69;5035534;28;45587;-75
2022/06/14 08:06:06;;;;;;;;;4.00;4.00;;;;;25.28;39.18;101749.97;5019883;28;45544;-76
2022/06/14 08:08:36;;;;;;;;;4.00;4.00;;;;;25.31;38.88;101749.66;5028268;28;45714;-78
2022/06/14 08:11:08;;;;;;;;;5.00;5.00;;;;;25.36;38.96;101751.88;5035746;28;45384;-79
2022/06/14 08:13:59;;;;;;;;;5.00;3.67;;;;;25.39;39.10;101748.88;5035530;28;45435;-78
2022/06/14 08:16:27;;;;;;;;;5.00;5.00;;;;;25.43;38.37;101736.69;5027854;28;45997;-77
2022/06/14 08:19:09;;;;;;;;;8.67;5.67;;;;;25.47;38.57;101739.94;5025972;28;45442;-76
2022/06/14 08:21:48;;;;;;;;;4.00;4.00;;;;;25.49;39.16;101741.47;5018541;28;45489;-77
2022/06/14 08:24:20;;;;;;;;;4.00;4.00;;;;;25.50;38.81;101735.03;5035301;28;45812;-77
2022/06/14 08:26:54;;;;;;;;;4.33;4.33;;;;;25.55;38.79;101734.59;5025508;28;47213;-77
2022/06/14 08:29:28;;;;;;;;;5.00;5.00;;;;;25.57;38.55;101724.41;5027590;28;45701;-76
2022/06/14 08:32:15;;;;;;;;;5.00;5.00;;;;;25.61;38.36;101730.38;5027075;28;45392;-77
2022/06/14 08:34:51;;;;;;;;;4.33;4.33;;;;;25.62;38.59;101727.50;5028085;28;45459;-78
2022/06/14 08:37:30;;;;;;;;;4.00;4.00;;;;;25.64;38.60;101725.50;5030185;28;52427;-78
2022/06/14 08:40:20;;;;;;;;;5.00;4.67;;;;;25.67;38.30;101731.59;5033531;28;45424;-77
2022/06/14 08:42:56;;;;;;;;;6.00;5.00;;;;;25.68;38.46;101727.88;5030445;28;45473;-77
2022/06/14 08:45:55;;;;;;;;;7.00;7.00;;;;;25.74;38.20;101719.06;5019482;28;45467;-79
2022/06/14 08:48:43;;;;;;;;;6.00;6.00;;;;;25.77;38.73;101719.63;5028194;28;47212;-78
2022/06/14 08:51:09;;;;;;;;;3.00;3.00;;;;;25.81;38.95;101722.00;5033417;28;45401;-79
2022/06/14 08:53:45;;;;;;;;;5.00;5.00;;;;;25.82;38.70;101721.84;5035575;28;45480;-79
2022/06/14 08:56:53;;;;;;;;;6.33;6.00;;;;;25.82;38.84;101726.44;5026958;28;45798;-81
2022/06/14 08:59:42;;;;;;;;;5.00;4.67;;;;;25.78;39.14;101721.31;5030781;28;46236;-80
2022/06/14 09:02:25;;;;;;;;;5.33;5.33;;;;;25.78;39.53;101725.91;5032829;28;45535;-79
2022/06/14 09:05:12;;;;;;;;;5.00;5.00;;;;;25.76;39.38;101722.50;5036125;28;45434;-81
2022/06/14 09:07:59;;;;;;;;;4.67;4.67;;;;;25.74;39.58;101730.81;5027342;28;45369;-77
2022/06/14 09:10:47;;;;;;;;;4.67;4.67;;;;;25.73;39.25;101729.09;5030670;28;46262;-77
2022/06/14 09:13:22;;;;;;;;;4.67;4.67;;;;;25.73;39.20;101723.66;5030490;28;45562;-76
2022/06/14 09:16:24;;;;;;;;;6.00;6.00;;;;;25.73;39.42;101712.78;5030278;28;45577;-76
2022/06/14 09:19:02;;;;;;;;;6.33;5.00;;;;;25.73;39.14;101715.50;5024316;28;45486;-76
2022/06/14 09:21:48;;;;;;;;;6.33;5.67;;;;;25.75;39.65;101713.47;5019466;28;46022;-77
2022/06/14 09:24:16;;;;;;;;;6.33;6.33;;;;;25.77;39.49;101711.47;5026539;28;45537;-78
2022/06/14 09:27:03;;;;;;;;;5.00;4.33;;;;;25.83;39.24;101715.38;5026093;28;45956;-78
2022/06/14 09:29:53;;;;;;;;;4.33;4.33;;;;;25.86;38.87;101709.63;5018473;28;45743;-79
2022/06/14 09:33:09;;;;;;;;;4.33;4.33;;;;;25.91;39.51;101709.13;5030553;28;46467;-79
2022/06/14 09:35:49;;;;;;;;;3.33;3.33;;;;;25.93;39.41;101712.56;5028161;28;45489;-79
2022/06/14 09:38:52;;;;;;;;;5.00;5.00;;;;;25.95;39.53;101710.53;5025204;28;45669;-79
2022/06/14 09:41:26;;;;;;;;;6.00;6.00;;;;;25.96;39.36;101701.38;5031139;28;45400;-77
2022/06/14 09:44:20;;;;;;;;;5.67;4.00;;;;;25.96;39.47;101698.66;5031902;28;46242;-79
2022/06/14 09:47:12;;;;;;;;;5.00;5.00;;;;;25.99;39.66;101705.63;5020416;28;48687;-79
2022/06/14 09:50:10;;;;;;;;;6.00;6.00;;;;;26.03;39.37;101698.84;5024458;28;47274;-79
2022/06/14 09:52:57;;;;;;;;;6.33;6.33;;;;;26.08;39.11;101696.50;5035136;28;45499;-76
2022/06/14 09:55:34;;;;;;;;;6.00;5.00;;;;;26.13;39.45;101698.72;5031167;28;45586;-76
2022/06/14 09:58:36;;;;;;;;;6.00;4.33;;;;;26.13;39.44;101704.16;5030790;28;46748;-76
2022/06/14 10:01:33;;;;;;;;;5.33;5.33;;;;;26.05;40.09;101692.25;5030331;28;45551;-76
2022/06/14 10:04:11;;;;;;;;;8.00;6.33;;;;;25.99;39.80;101687.44;5029337;28;45521;-76
2022/06/14 10:07:06;;;;;;;;;5.00;5.00;;;;;25.95;39.53;101693.38;5037296;28;45448;-76
2022/06/14 10:10:00;;;;;;;;;5.00;5.00;;;;;25.91;39.63;101692.81;5040037;28;45404;-78
2022/06/14 10:12:56;;;;;;;;;4.67;4.67;;;;;25.88;39.91;101687.72;5000975;28;45417;-76
2022/06/14 10:15:59;;;;;;;;;4.33;4.33;;;;;25.85;40.08;101693.47;5000521;28;45513;-76
2022/06/14 10:19:01;;;;;;;;;6.67;5.00;;;;;25.85;39.85;101686.19;4998195;28;45816;-76
2022/06/14 10:22:06;;;;;;;;;4.00;4.00;;;;;25.91;39.92;101676.50;5003480;28;45462;-77
2022/06/14 10:24:37;;;;;;;;;7.00;5.33;;;;;25.98;39.83;101674.84;5007417;28;45676;-77
2022/06/14 10:30:33;;;;;;;;;6.00;4.00;;;;;26.13;39.80;101675.09;4996454;28;45838;-77
2022/06/14 10:33:01;;;;;;;;;8.00;6.67;;;;;26.16;39.56;101673.91;4986134;28;45604;-78
2022/06/14 10:35:38;;;;;;;;;6.67;6.67;;;;;26.23;39.75;101674.13;4989282;28;45514;-78
2022/06/14 10:38:03;;;;;;;;;5.00;5.00;;;;;26.25;39.85;101672.09;4990683;28;46399;-77
2022/06/14 10:40:35;;;;;;;;;5.67;5.67;;;;;26.28;39.73;101666.34;4987453;28;48624;-78
2022/06/14 10:43:23;;;;;;;;;6.33;6.33;;;;;26.32;39.74;101664.97;4985508;28;45478;-77
2022/06/14 10:45:54;;;;;;;;;6.00;5.00;;;;;26.35;39.76;101656.50;4985682;28;45788;-77
2022/06/14 10:48:47;;;;;;;;;4.33;4.33;;;;;26.39;39.79;101657.88;4992579;28;45765;-76
2022/06/14 10:51:21;;;;;;;;;6.33;6.33;;;;;26.40;39.48;101648.69;5032023;28;46319;-76
2022/06/14 10:54:04;;;;;;;;;3.67;3.67;;;;;26.42;39.44;101646.66;5020308;28;45431;-76
2022/06/14 10:56:47;;;;;;;;;3.00;3.00;;;;;26.43;39.93;101653.78;5031856;28;45824;-76
2022/06/14 10:59:32;;;;;;;;;6.00;6.00;;;;;26.46;39.61;101643.59;5036721;28;45521;-77
2022/06/14 11:02:17;;;;;;;;;5.00;5.00;;;;;26.46;39.39;101640.84;5033211;28;45611;-77
2022/06/14 11:04:54;;;;;;;;;6.33;4.67;;;;;26.48;39.74;101639.66;5032402;28;45478;-77
2022/06/14 11:07:51;;;;;;;;;7.67;6.33;;;;;26.49;39.68;101637.81;5025973;28;45478;-79
2022/06/14 11:10:45;;;;;;;;;6.33;6.33;;;;;26.51;39.78;101631.19;5022655;28;45499;-80
2022/06/14 11:13:17;;;;;;;;;5.00;5.00;;;;;26.53;39.17;101622.84;5027190;28;45409;-80
2022/06/14 11:15:55;;;;;;;;;5.33;5.33;;;;;26.55;39.63;101618.09;5026308;28;45980;-74
2022/06/14 11:18:44;;;;;;;;;6.67;5.33;;;;;26.56;38.92;101614.34;5031285;28;45470;-74
2022/06/14 11:21:37;;;;;;;;;3.67;3.67;;;;;26.56;39.54;101614.34;5031614;28;45563;-76
2022/06/14 11:24:12;;;;;;;;;5.00;5.00;;;;;26.54;39.50;101606.34;5028891;28;46387;-76
2022/06/14 11:26:52;;;;;;;;;6.00;6.00;;;;;26.56;38.87;101603.44;5026932;28;45507;-76
2022/06/14 11:29:49;;;;;;;;;6.00;6.00;;;;;26.54;39.07;101598.19;5031385;28;45489;-76
2022/06/14 11:32:27;;;;;;;;;5.00;5.00;;;;;26.55;39.25;101597.16;5030968;28;46790;-76
2022/06/14 11:35:29;;;;;;;;;5.00;5.00;;;;;26.56;39.03;101589.84;5029995;28;46373;-75
2022/06/14 11:38:00;;;;;;;;;6.00;6.00;;;;;26.57;39.11;101586.13;5033348;28;45727;-75
2022/06/14 11:40:29;;;;;;;;;6.00;6.00;;;;;26.57;39.44;101584.22;5025726;28;45784;-75
2022/06/14 11:43:36;;;;;;;;;6.33;6.00;;;;;26.59;39.02;101586.78;5026151;28;45483;-76
2022/06/14 11:46:24;;;;;;;;;4.00;4.00;;;;;26.59;39.39;101573.16;5031389;28;45436;-76
2022/06/14 11:48:59;;;;;;;;;5.67;5.67;;;;;26.60;38.60;101582.19;5035517;28;45506;-75
2022/06/14 11:51:29;;;;;;;;;8.00;6.67;;;;;26.61;39.00;101575.72;5030109;28;45702;-75
2022/06/14 11:54:22;;;;;;;;;6.67;6.33;;;;;26.57;39.26;101572.50;5032181;28;45479;-75
2022/06/14 11:57:06;;;;;;;;;5.00;5.00;;;;;26.31;39.43;101568.91;5025229;28;47191;-77
2022/06/14 11:59:50;;;;;;;;;5.00;5.00;;;;;26.10;39.69;101573.91;5029525;28;45587;-77
2022/06/14 12:02:27;;;;;;;;;8.00;7.67;;;;;25.96;40.10;101562.66;5029288;28;45522;-77
2022/06/14 12:05:01;;;;;;;;;6.00;6.00;;;;;25.88;40.25;101566.19;5040680;28;47173;-77
2022/06/14 12:07:36;;;;;;;;;9.00;7.00;;;;;25.82;40.51;101568.75;5026409;28;46070;-77
2022/06/14 12:10:20;;;;;;;;;5.67;5.67;;;;;25.77;40.67;101561.06;5030690;28;45514;-77
2022/06/14 12:13:04;;;;;;;;;8.00;6.00;;;;;25.73;40.75;101551.53;5033588;28;45457;-77
2022/06/14 12:15:36;;;;;;;;;6.33;6.00;;;;;25.69;40.26;101551.00;5031326;28;45554;-79
2022/06/14 12:18:07;;;;;;;;;6.00;6.00;;;;;25.68;40.61;101545.72;5027806;28;45595;-78
2022/06/14 12:20:41;;;;;;;;;7.00;5.33;;;;;25.64;40.47;101540.63;5025321;28;45556;-79
2022/06/14 12:23:33;;;;;;;;;5.67;5.67;;;;;25.61;40.87;101535.50;5022523;28;45570;-79
2022/06/14 12:26:34;;;;;;;;;5.00;5.00;;;;;25.59;40.70;101528.53;5036536;28;45396;-76
2022/06/14 12:29:19;;;;;;;;;6.67;6.67;;;;;25.52;41.09;101520.16;5033339;28;46309;-76
2022/06/14 12:31:53;;;;;;;;;6.00;6.00;;;;;25.46;40.98;101513.50;5038329;28;45549;-75
2022/06/14 12:34:29;;;;;;;;;5.67;5.67;;;;;25.42;41.34;101508.56;5033738;28;45533;-76
2022/06/14 12:37:19;;;;;;;;;6.33;6.33;;;;;25.39;41.04;101507.84;5027254;28;45528;-76
2022/06/14 12:39:52;;;;;;;;;5.33;5.33;;;;;25.36;41.30;101504.63;5021240;28;45616;-75
2022/06/14 12:42:20;;;;;;;;;6.00;6.00;;;;;25.36;41.25;101516.34;5028132;28;45856;-78
2022/06/14 12:45:15;;;;;;;;;5.00;5.00;;;;;25.36;41.48;101507.34;5030179;28;45601;-76
2022/06/14 12:48:06;;;;;;;;;9.33;6.00;;;;;25.35;41.49;101502.94;5033924;28;45506;-76
2022/06/14 12:50:37;;;;;;;;;6.67;5.00;;;;;25.32;41.95;101506.81;5033782;28;45919;-77
2022/06/14 12:53:33;;;;;;;;;4.67;4.67;;;;;25.35;41.63;101502.94;5030961;28;45592;-77
2022/06/14 12:56:06;;;;;;;;;6.67;6.67;;;;;25.39;41.73;101507.03;5036451;28;45702;-77
2022/06/14 12:58:45;;;;;;;;;5.67;5.00;;;;;25.44;41.68;101512.81;5027883;28;45617;-77
2022/06/14 13:01:28;;;;;;;;;4.33;4.33;;;;;25.48;41.61;101513.34;5030930;28;47126;-77
2022/06/14 13:03:59;;;;;;;;;5.00;5.00;;;;;25.50;41.68;101511.31;5033856;28;45395;-76
2022/06/14 13:07:02;;;;;;;;;4.00;4.00;;;;;25.53;41.82;101514.56;5037710;28;46020;-77
2022/06/14 13:10:04;;;;;;;;;6.00;6.00;;;;;25.54;41.86;101515.41;5039376;28;45453;-77
2022/06/14 13:13:05;;;;;;;;;4.00;4.00;;;;;25.49;41.57;101512.31;5023680;28;46227;-76
2022/06/14 13:15:34;;;;;;;;;4.00;4.00;;;;;25.47;41.75;101506.22;5023086;28;45551;-79
2022/06/14 13:18:02;;;;;;;;;4.67;4.67;;;;;25.56;41.32;101497.09;5034532;28;45436;-76
2022/06/14 13:20:50;;;;;;;;;6.67;5.67;;;;;25.72;41.51;101501.75;5031659;28;45646;-77
2022/06/14 13:23:38;;;;;;;;;4.00;3.00;;;;;25.92;41.75;101496.03;5041838;28;45566;-77
2022/06/14 13:26:18;;;;;;;;;4.00;4.00;;;;;26.08;41.43;101494.34;5035272;28;45754;-78
2022/06/14 13:28:50;;;;;;;;;6.00;6.00;;;;;26.22;40.87;101492.81;5029398;28;45456;-77
2022/06/14 13:31:37;;;;;;;;;3.33;3.33;;;;;26.35;41.09;101501.38;5026201;28;46085;-78
2022/06/14 13:34:29;;;;;;;;;5.00;5.00;;;;;26.47;40.82;101491.00;5027482;28;47273;-78
2022/06/14 13:37:10;;;;;;;;;5.00;5.00;;;;;26.57;40.10;101488.94;5025079;28;48538;-77
2022/06/14 13:39:46;;;;;;;;;5.67;4.00;;;;;26.61;40.52;101472.28;5039242;28;45407;-77
2022/06/14 13:42:33;;;;;;;;;4.00;4.00;;;;;26.71;40.37;101472.94;5024636;28;45699;-77
2022/06/14 13:45:04;;;;;;;;;5.00;5.00;;;;;26.79;39.78;101458.44;5025523;28;45823;-77
2022/06/14 13:48:01;;;;;;;;;5.00;4.00;;;;;26.86;40.30;101455.88;5027973;28;45509;-79
2022/06/14 13:50:33;;;;;;;;;5.33;5.00;;;;;26.91;39.57;101453.50;5024130;28;45492;-80
2022/06/14 13:53:04;;;;;;;;;4.33;4.33;;;;;26.96;39.63;101445.69;5028401;28;45494;-79
2022/06/14 13:56:01;;;;;;;;;4.00;4.00;;;;;27.01;39.91;101446.00;5019676;28;46466;-80
2022/06/14 13:58:37;;;;;;;;;4.00;4.00;;;;;27.06;39.88;101450.94;5023888;28;45400;-79
2022/06/14 14:01:14;;;;;;;;;4.00;4.00;;;;;27.10;39.55;101439.50;5020661;28;45610;-78
2022/06/14 14:03:46;;;;;;;;;3.67;3.67;;;;;27.13;39.81;101441.00;5019733;28;45652;-78
2022/06/14 14:06:25;;;;;;;;;3.33;3.33;;;;;27.18;39.65;101443.22;5020418;28;45786;-78
2022/06/14 14:09:10;;;;;;;;;3.00;3.00;;;;;27.19;39.56;101437.59;5014613;28;46947;-78
2022/06/14 14:11:49;;;;;;;;;5.00;5.00;;;;;27.21;39.83;101440.13;5019773;28;47137;-79
2022/06/14 14:15:06;;;;;;;;;6.67;5.67;;;;;27.22;39.02;101439.97;5026662;28;45516;-78
2022/06/14 14:17:46;;;;;;;;;4.67;4.67;;;;;27.22;39.67;101428.22;5000165;28;46649;-78
2022/06/14 14:20:38;;;;;;;;;4.67;4.33;;;;;27.22;39.73;101420.88;5001093;28;45434;-78
2022/06/14 14:23:24;;;;;;;;;3.00;3.00;;;;;27.23;39.23;101417.13;5001254;28;45733;-78
2022/06/14 14:25:56;;;;;;;;;3.67;3.33;;;;;27.25;39.55;101419.69;5012891;28;45774;-78
2022/06/14 14:28:26;;;;;;;;;3.00;3.00;;;;;27.25;39.07;101416.13;5009184;28;46101;-78
2022/06/14 14:31:12;;;;;;;;;3.67;3.67;;;;;27.26;39.15;101415.91;5010021;28;45478;-78
2022/06/14 14:33:46;;;;;;;;;4.00;4.00;;;;;27.26;39.56;101412.38;5007574;28;45813;-78
2022/06/14 14:36:33;;;;;;;;;3.67;3.67;;;;;27.25;39.55;101405.22;5001922;28;45627;-79
2022/06/14 14:39:14;;;;;;;;;5.00;5.00;;;;;27.26;39.46;101399.56;5001314;28;70218;-76
2022/06/14 14:41:47;;;;;;;;;4.00;4.00;;;;;27.26;39.41;101396.84;5011467;28;45630;-79
2022/06/14 14:44:17;;;;;;;;;4.33;4.33;;;;;27.28;38.67;101394.81;5009660;28;45563;-77
2022/06/14 14:46:53;;;;;;;;;3.00;3.00;;;;;27.29;38.88;101384.75;5009959;28;45459;-77
2022/06/14 14:49:32;;;;;;;;;5.00;3.00;;;;;27.30;38.64;101381.84;5012602;28;60322;-77
2022/06/14 14:52:14;;;;;;;;;4.00;4.00;;;;;27.32;38.76;101382.53;5002179;28;45423;-78
2022/06/14 14:54:44;;;;;;;;;5.00;5.00;;;;;27.34;39.30;101376.91;5029995;28;45626;-77
2022/06/14 14:57:29;;;;;;;;;3.67;3.67;;;;;27.36;38.80;101378.41;5030275;28;47190;-75
2022/06/14 15:06:19;;;;;;;;;5.33;5.33;;;;;27.46;38.98;101380.06;5020873;28;45810;-76
2022/06/14 15:08:57;;;;;;;;;3.00;3.00;;;;;27.47;38.75;101390.78;5024534;28;46588;-77
2022/06/14 15:11:26;;;;;;;;;5.33;5.33;;;;;27.51;38.53;101380.38;5021501;28;45578;-77
2022/06/14 15:13:53;;;;;;;;;3.00;3.00;;;;;27.53;38.50;101382.91;5025857;28;45629;-76
2022/06/14 15:16:34;;;;;;;;;7.00;4.67;;;;;27.54;38.68;101373.72;5020155;28;46140;-78
2022/06/14 15:19:59;;;;;;;;;6.33;4.00;;;;;27.55;38.38;101376.22;5023063;28;45411;-79
2022/06/14 15:22:43;;;;;;;;;5.00;5.00;;;;;27.54;38.58;101371.81;5012733;28;47394;-78
2022/06/14 15:25:22;;;;;;;;;3.00;3.00;;;;;27.52;39.19;101371.16;5017474;28;45500;-79
2022/06/14 15:28:09;;;;;;;;;5.00;5.00;;;;;27.53;39.24;101359.22;5022658;28;45475;-79
2022/06/14 15:30:37;;;;;;;;;4.67;4.67;;;;;27.53;38.61;101366.53;5016479;28;45940;-80
2022/06/14 15:33:24;;;;;;;;;3.00;3.00;;;;;27.52;39.29;101359.41;5013362;28;46075;-79
2022/06/14 15:35:53;;;;;;;;;4.00;4.00;;;;;27.51;38.67;101361.28;5024174;28;45571;-79
2022/06/14 15:38:43;;;;;;;;;4.00;4.00;;;;;27.54;39.09;101360.09;5018826;28;45511;-78
2022/06/14 15:41:27;;;;;;;;;3.00;3.00;;;;;27.57;39.04;101363.28;5016824;28;47431;-77
2022/06/14 15:44:12;;;;;;;;;3.33;3.33;;;;;27.59;39.07;101353.03;5003526;28;47111;-76
2022/06/14 15:46:48;;;;;;;;;4.00;4.00;;;;;27.60;39.12;101346.59;4998671;28;45652;-76
2022/06/14 15:49:17;;;;;;;;;5.33;4.33;;;;;27.61;38.57;101341.97;5015393;28;45766;-77
2022/06/14 15:51:44;;;;;;;;;3.33;3.33;;;;;27.60;38.68;101345.75;5013587;28;45591;-77
2022/06/14 15:54:35;;;;;;;;;3.33;3.33;;;;;27.62;38.65;101341.81;5014480;28;46978;-76
2022/06/14 15:57:19;;;;;;;;;5.00;3.33;;;;;27.61;38.40;101334.66;5020832;28;47370;-78
2022/06/14 15:59:52;;;;;;;;;5.00;4.00;;;;;27.61;38.87;101336.53;5021899;28;45802;-78
2022/06/14 16:02:26;;;;;;;;;6.00;4.67;;;;;27.62;38.87;101338.22;5021414;28;45522;-78
2022/06/14 16:04:56;;;;;;;;;5.00;4.33;;;;;27.60;38.23;101332.13;5020869;28;45970;-78
2022/06/14 16:07:31;;;;;;;;;6.00;5.00;;;;;27.58;38.26;101339.56;5018317;28;45621;-78
2022/06/14 16:10:01;;;;;;;;;6.67;5.00;;;;;27.57;38.91;101335.16;5023707;28;45623;-78
2022/06/14 16:12:41;;;;;;;;;6.00;6.00;;;;;27.53;38.35;101331.97;5019054;28;45855;-78
2022/06/14 16:15:25;;;;;;;;;4.33;3.67;;;;;27.53;38.87;101334.69;5016442;28;46416;-79
2022/06/14 16:17:51;;;;;;;;;7.00;5.67;;;;;27.53;38.43;101328.38;5018574;28;47791;-77
2022/06/14 16:20:19;;;;;;;;;5.67;4.00;;;;;27.51;38.38;101327.72;5021051;28;45842;-79
2022/06/14 16:22:45;;;;;;;;;4.00;4.00;;;;;27.51;38.80;101319.53;5020907;28;46930;-82
2022/06/14 16:25:37;;;;;;;;;4.00;4.00;;;;;27.52;39.44;101315.78;5020252;28;45459;-80
2022/06/14 16:28:24;;;;;;;;;5.00;3.00;;;;;27.52;38.58;101321.22;5018345;28;45679;-79
2022/06/14 16:31:04;;;;;;;;;4.00;3.00;;;;;27.52;38.64;101321.22;5018665;28;46136;-78
2022/06/14 16:33:37;;;;;;;;;5.33;5.33;;;;;27.54;38.68;101316.47;5017243;28;45700;-78
2022/06/14 16:36:29;;;;;;;;;3.33;3.33;;;;;27.54;39.21;101314.56;5019792;28;46490;-80
2022/06/14 16:39:06;;;;;;;;;3.67;3.67;;;;;27.56;38.58;101319.84;5019601;28;45753;-80
2022/06/14 16:41:47;;;;;;;;;5.00;5.00;;;;;27.57;38.75;101310.63;5017428;28;46045;-75
2022/06/14 16:44:46;;;;;;;;;6.33;4.00;;;;;27.61;38.62;101321.03;5021621;28;45826;-76
2022/06/14 16:47:14;;;;;;;;;3.00;3.00;;;;;27.64;39.15;101310.78;5022186;28;46112;-76
2022/06/14 16:50:05;;;;;;;;;5.00;5.00;;;;;27.67;38.72;101305.81;5016887;28;46950;-76
2022/06/14 16:52:41;;;;;;;;;4.67;4.67;;;;;27.71;39.19;101303.56;5019924;28;46073;-76
2022/06/14 16:55:42;;;;;;;;;3.00;3.00;;;;;27.72;38.37;101303.38;5019415;28;47555;-76
2022/06/14 16:58:19;;;;;;;;;4.00;4.00;;;;;27.74;38.78;101300.47;5023883;28;45548;-78
2022/06/14 17:00:52;;;;;;;;;3.00;3.00;;;;;27.75;38.72;101302.19;5020074;28;45780;-78
2022/06/14 17:03:46;;;;;;;;;4.00;4.00;;;;;27.76;38.55;101301.16;5017962;28;45539;-78
2022/06/14 17:06:42;;;;;;;;;5.00;5.00;;;;;27.75;38.33;101294.84;5020672;28;45569;-77
2022/06/14 17:09:26;;;;;;;;;5.67;5.00;;;;;27.79;38.04;101291.75;5030224;28;47487;-78
2022/06/14 19:25:29;;;;;;;;;6.67;6.67;;;;;22.89;47.45;101273.56;5095208;27;46135;-77
2022/06/14 19:28:09;;;;;;;;;5.67;5.67;;;;;23.02;47.59;101278.63;5084017;27;45439;-82
2022/06/14 19:30:53;;;;;;;;;6.00;6.00;;;;;23.21;47.56;101269.50;5077747;27;45961;-77
2022/06/14 19:33:24;;;;;;;;;5.00;5.00;;;;;23.48;47.07;101265.06;5089181;27;45591;-80
2022/06/14 19:35:56;;;;;;;;;5.00;5.00;;;;;23.74;46.78;101275.09;5078200;27;45496;-78
2022/06/14 19:38:44;;;;;;;;;5.67;4.00;;;;;24.03;46.44;101265.81;5082048;27;45505;-79
2022/06/14 19:41:17;;;;;;;;;8.00;6.33;;;;;24.29;46.28;101270.41;5085141;27;45343;-78
2022/06/14 19:43:44;;;;;;;;;5.33;4.00;;;;;24.54;45.51;101270.53;5082363;27;45541;-79
2022/06/14 19:46:13;;;;;;;;;8.00;8.00;;;;;24.79;45.35;101276.06;5081392;27;46396;-78
2022/06/14 19:51:31;;;;;;;;;5.33;5.00;;;;;25.26;44.75;101276.56;5083739;27;45927;-80
2022/06/14 19:54:00;;;;;;;;;5.00;5.00;;;;;25.46;44.93;101278.97;5077617;27;45512;-79
2022/06/14 19:56:27;;;;;;;;;6.00;6.00;;;;;25.63;44.59;101275.25;5088015;27;45573;-80
2022/06/14 19:59:00;;;;;;;;;6.33;6.33;;;;;25.81;44.16;101273.34;5084143;27;45450;-78
2022/06/14 20:01:32;;;;;;;;;5.00;5.00;;;;;25.97;44.46;101278.78;5079440;27;45496;-83
2022/06/14 20:40:05;;;;;;;;;6.00;5.00;;;;;24.41;45.29;101297.25;5071072;27;45583;-77
2022/06/14 20:42:32;;;;;;;;;6.33;6.33;;;;;24.35;45.15;101293.31;5058132;28;45437;-75
2022/06/14 20:45:09;;;;;;;;;8.00;8.00;;;;;24.37;45.62;101302.16;5057368;28;45607;-75
2022/06/14 20:47:37;;;;;;;;;11.00;6.00;;;;;24.40;45.52;101293.69;5063350;27;45403;-76
2022/06/14 20:50:09;;;;;;;;;6.00;5.67;;;;;24.46;45.34;101303.91;5060491;28;46283;-76
2022/06/14 20:52:35;;;;;;;;;4.33;4.33;;;;;24.55;45.02;101295.78;5059839;28;45254;-76
2022/06/14 20:55:01;;;;;;;;;6.00;6.00;;;;;24.64;45.28;101299.41;5064550;28;45525;-75
2022/06/14 20:59:07;;;;;;;;;5.67;5.00;;;;;24.80;45.19;101301.34;5078804;27;45535;-78
2022/06/14 21:01:32;;;;;;;;;7.00;5.00;;;;;24.94;45.12;101299.91;5047760;28;46386;-77
2022/06/14 21:03:58;;;;;;;;;6.00;5.00;;;;;25.09;44.74;101311.00;5050577;28;45533;-77
2022/06/14 21:06:24;;;;;;;;;6.00;5.00;;;;;25.25;44.54;101307.44;5044978;28;45606;-77
2022/06/14 21:08:52;;;;;;;;;7.67;4.67;;;;;25.41;44.46;101303.91;5044653;28;46980;-77
2022/06/14 21:11:35;;;;;;;;;6.00;6.00;;;;;25.58;44.12;101310.22;5046763;28;45447;-77
2022/06/14 21:14:00;;;;;;;;;4.33;4.33;;;;;25.72;43.29;101300.56;5043981;28;45438;-77
2022/06/14 21:16:30;;;;;;;;;4.33;4.33;;;;;25.86;43.49;101303.59;5047785;28;45522;-77
2022/06/14 21:18:55;;;;;;;;;5.00;5.00;;;;;25.97;43.05;101314.16;5046184;28;46158;-77
2022/06/14 21:21:29;;;;;;;;;5.00;5.00;;;;;26.08;43.06;101307.53;5047466;28;45640;-77
2022/06/14 21:23:55;;;;;;;;;3.33;3.33;;;;;26.18;43.25;101308.19;5048360;28;45566;-77
2022/06/14 21:26:21;;;;;;;;;5.00;5.00;;;;;26.27;42.55;101310.88;5046949;28;45887;-77
2022/06/14 21:28:56;;;;;;;;;5.00;5.00;;;;;26.35;42.67;101307.31;5042113;28;45385;-77